sensor_id;sensor_type;location;lat;lon;timestamp;P1;durP1;ratioP1;P2;durP2;ratioP2
6269;SDS011;3168;51.684;6.954;2022-07-01T00:01:33;0.50;;;0.50;;
6269;SDS011;3168;51.684;6.954;2022-07-01T00:03:58;0.50;;;0.50;;
6269;SDS011;3168;51.684;6.954;2022-07-01T00:06:24;0.50;;;0.50;;
6269;SDS011;3168;51.684;6.954;2022-07-01T00:08:50;1.13;;;1.13;;
6269;SDS011;3168;51.684;6.954;2022-07-01T00:11:16;0.50;;;0.50;;
6269;SDS011;3168;51.684;6.954;2022-07-01T00:13:42;0.50;;;0.50;;
6269;SDS011;3168;51.684;6.954;2022-07-01T00:16:08;0.50;;;0.50;;
6269;SDS011;3168;51.684;6.954;2022-07-01T00:18:33;0.50;;;0.50;;
6269;SDS011;3168;51.684;6.954;2022-07-01T00:20:59;0.50;;;0.50;;
6269;SDS011;3168;51.684;6.954;2022-07-01T00:23:25;0.50;;;0.50;;
6269;SDS011;3168;51.684;6.954;2022-07-01T00:25:51;1.00;;;1.00;;
6269;SDS011;3168;51.684;6.954;2022-07-01T00:28:17;0.50;;;0.50;;
6269;SDS011;3168;51.684;6.954;2022-07-01T00:30:43;0.50;;;0.50;;
6269;SDS011;3168;51.684;6.954;2022-07-01T00:33:09;0.60;;;0.60;;
6269;SDS011;3168;51.684;6.954;2022-07-01T00:35:35;0.50;;;0.50;;
6269;SDS011;3168;51.684;6.954;2022-07-01T00:38:00;0.47;;;0.47;;
6269;SDS011;3168;51.684;6.954;2022-07-01T00:40:26;0.50;;;0.50;;
6269;SDS011;3168;51.684;6.954;2022-07-01T00:42:53;0.50;;;0.50;;
6269;SDS011;3168;51.684;6.954;2022-07-01T00:45:20;0.50;;;0.50;;
6269;SDS011;3168;51.684;6.954;2022-07-01T00:47:45;0.50;;;0.50;;
6269;SDS011;3168;51.684;6.954;2022-07-01T00:50:12;0.50;;;0.50;;
6269;SDS011;3168;51.684;6.954;2022-07-01T00:52:39;0.50;;;0.50;;
6269;SDS011;3168;51.684;6.954;2022-07-01T00:55:05;0.60;;;0.60;;
6269;SDS011;3168;51.684;6.954;2022-07-01T00:57:32;0.50;;;0.50;;
6269;SDS011;3168;51.684;6.954;2022-07-01T00:59:57;0.50;;;0.50;;
6269;SDS011;3168;51.684;6.954;2022-07-01T01:02:23;0.50;;;0.50;;
6269;SDS011;3168;51.684;6.954;2022-07-01T01:04:49;0.50;;;0.50;;
6269;SDS011;3168;51.684;6.954;2022-07-01T01:07:14;0.50;;;0.50;;
6269;SDS011;3168;51.684;6.954;2022-07-01T01:09:40;0.50;;;0.50;;
6269;SDS011;3168;51.684;6.954;2022-07-01T01:12:06;0.50;;;0.50;;
6269;SDS011;3168;51.684;6.954;2022-07-01T01:17:08;0.50;;;0.50;;
6269;SDS011;3168;51.684;6.954;2022-07-01T01:19:34;0.50;;;0.50;;
6269;SDS011;3168;51.684;6.954;2022-07-01T01:22:00;0.50;;;0.50;;
6269;SDS011;3168;51.684;6.954;2022-07-01T01:24:26;0.50;;;0.50;;
6269;SDS011;3168;51.684;6.954;2022-07-01T01:26:52;0.47;;;0.47;;
6269;SDS011;3168;51.684;6.954;2022-07-01T01:29:18;1.07;;;1.07;;
6269;SDS011;3168;51.684;6.954;2022-07-01T01:31:43;0.50;;;0.50;;
6269;SDS011;3168;51.684;6.954;2022-07-01T01:34:09;0.50;;;0.50;;
6269;SDS011;3168;51.684;6.954;2022-07-01T01:36:35;0.50;;;0.50;;
6269;SDS011;3168;51.684;6.954;2022-07-01T01:39:01;3.17;;;2.97;;
6269;SDS011;3168;51.684;6.954;2022-07-01T01:41:29;0.50;;;0.50;;
6269;SDS011;3168;51.684;6.954;2022-07-01T01:43:54;0.50;;;0.50;;
6269;SDS011;3168;51.684;6.954;2022-07-01T01:46:21;0.50;;;0.50;;
6269;SDS011;3168;51.684;6.954;2022-07-01T01:48:48;0.50;;;0.50;;
6269;SDS011;3168;51.684;6.954;2022-07-01T01:51:13;0.50;;;0.50;;
6269;SDS011;3168;51.684;6.954;2022-07-01T01:53:39;0.50;;;0.50;;
6269;SDS011;3168;51.684;6.954;2022-07-01T01:56:05;0.50;;;0.50;;
6269;SDS011;3168;51.684;6.954;2022-07-01T01:58:31;0.50;;;0.50;;
6269;SDS011;3168;51.684;6.954;2022-07-01T02:00:57;0.60;;;0.60;;
6269;SDS011;3168;51.684;6.954;2022-07-01T02:03:23;0.50;;;0.50;;
6269;SDS011;3168;51.684;6.954;2022-07-01T02:05:49;0.50;;;0.50;;
6269;SDS011;3168;51.684;6.954;2022-07-01T02:08:15;0.50;;;0.50;;
6269;SDS011;3168;51.684;6.954;2022-07-01T02:10:40;0.50;;;0.50;;
6269;SDS011;3168;51.684;6.954;2022-07-01T02:13:06;0.50;;;0.50;;
6269;SDS011;3168;51.684;6.954;2022-07-01T02:15:32;0.80;;;0.80;;
6269;SDS011;3168;51.684;6.954;2022-07-01T02:17:58;0.50;;;0.50;;
6269;SDS011;3168;51.684;6.954;2022-07-01T02:20:24;0.50;;;0.50;;
6269;SDS011;3168;51.684;6.954;2022-07-01T02:22:50;0.50;;;0.50;;
6269;SDS011;3168;51.684;6.954;2022-07-01T02:25:16;0.50;;;0.50;;
6269;SDS011;3168;51.684;6.954;2022-07-01T02:27:41;0.50;;;0.50;;
6269;SDS011;3168;51.684;6.954;2022-07-01T02:30:07;0.50;;;0.50;;
6269;SDS011;3168;51.684;6.954;2022-07-01T02:32:34;3.83;;;3.47;;
6269;SDS011;3168;51.684;6.954;2022-07-01T02:34:59;0.50;;;0.50;;
6269;SDS011;3168;51.684;6.954;2022-07-01T02:37:26;0.50;;;0.50;;
6269;SDS011;3168;51.684;6.954;2022-07-01T02:39:51;0.50;;;0.50;;
6269;SDS011;3168;51.684;6.954;2022-07-01T02:42:17;0.50;;;0.50;;
6269;SDS011;3168;51.684;6.954;2022-07-01T02:44:49;0.50;;;0.50;;
6269;SDS011;3168;51.684;6.954;2022-07-01T02:47:15;3.13;;;0.93;;
6269;SDS011;3168;51.684;6.954;2022-07-01T02:49:41;0.50;;;0.50;;
6269;SDS011;3168;51.684;6.954;2022-07-01T02:52:06;0.50;;;0.50;;
6269;SDS011;3168;51.684;6.954;2022-07-01T02:54:32;0.50;;;0.50;;
6269;SDS011;3168;51.684;6.954;2022-07-01T02:56:58;0.97;;;0.97;;
6269;SDS011;3168;51.684;6.954;2022-07-01T02:59:24;0.70;;;0.70;;
6269;SDS011;3168;51.684;6.954;2022-07-01T03:01:50;0.50;;;0.50;;
6269;SDS011;3168;51.684;6.954;2022-07-01T03:04:16;0.50;;;0.50;;
6269;SDS011;3168;51.684;6.954;2022-07-01T03:06:41;0.50;;;0.50;;
6269;SDS011;3168;51.684;6.954;2022-07-01T03:09:07;0.50;;;0.50;;
6269;SDS011;3168;51.684;6.954;2022-07-01T03:11:34;0.50;;;0.50;;
6269;SDS011;3168;51.684;6.954;2022-07-01T03:14:00;0.50;;;0.50;;
6269;SDS011;3168;51.684;6.954;2022-07-01T03:16:26;0.80;;;0.80;;
6269;SDS011;3168;51.684;6.954;2022-07-01T03:18:51;0.50;;;0.50;;
6269;SDS011;3168;51.684;6.954;2022-07-01T03:21:17;0.50;;;0.50;;
6269;SDS011;3168;51.684;6.954;2022-07-01T03:23:43;0.50;;;0.50;;
6269;SDS011;3168;51.684;6.954;2022-07-01T03:26:10;0.50;;;0.50;;
6269;SDS011;3168;51.684;6.954;2022-07-01T03:28:35;0.50;;;0.50;;
6269;SDS011;3168;51.684;6.954;2022-07-01T03:31:02;0.50;;;0.50;;
6269;SDS011;3168;51.684;6.954;2022-07-01T03:33:28;0.50;;;0.50;;
6269;SDS011;3168;51.684;6.954;2022-07-01T03:35:54;0.50;;;0.50;;
6269;SDS011;3168;51.684;6.954;2022-07-01T03:38:20;0.50;;;0.50;;
6269;SDS011;3168;51.684;6.954;2022-07-01T03:40:46;0.50;;;0.50;;
6269;SDS011;3168;51.684;6.954;2022-07-01T03:43:13;0.50;;;0.50;;
6269;SDS011;3168;51.684;6.954;2022-07-01T03:45:38;0.63;;;0.63;;
6269;SDS011;3168;51.684;6.954;2022-07-01T03:48:05;0.50;;;0.50;;
6269;SDS011;3168;51.684;6.954;2022-07-01T03:50:31;0.50;;;0.50;;
6269;SDS011;3168;51.684;6.954;2022-07-01T03:52:57;0.50;;;0.50;;
6269;SDS011;3168;51.684;6.954;2022-07-01T03:55:29;0.50;;;0.50;;
6269;SDS011;3168;51.684;6.954;2022-07-01T03:57:55;0.50;;;0.50;;
6269;SDS011;3168;51.684;6.954;2022-07-01T04:00:21;0.50;;;0.50;;
6269;SDS011;3168;51.684;6.954;2022-07-01T04:02:48;0.50;;;0.50;;
6269;SDS011;3168;51.684;6.954;2022-07-01T04:05:12;0.53;;;0.53;;
6269;SDS011;3168;51.684;6.954;2022-07-01T04:07:38;0.50;;;0.50;;
6269;SDS011;3168;51.684;6.954;2022-07-01T04:10:05;0.50;;;0.50;;
6269;SDS011;3168;51.684;6.954;2022-07-01T04:12:31;0.50;;;0.50;;
6269;SDS011;3168;51.684;6.954;2022-07-01T04:14:57;0.50;;;0.50;;
6269;SDS011;3168;51.684;6.954;2022-07-01T04:17:22;0.50;;;0.50;;
6269;SDS011;3168;51.684;6.954;2022-07-01T04:19:48;0.50;;;0.50;;
6269;SDS011;3168;51.684;6.954;2022-07-01T04:22:15;0.50;;;0.50;;
6269;SDS011;3168;51.684;6.954;2022-07-01T04:24:48;0.50;;;0.50;;
6269;SDS011;3168;51.684;6.954;2022-07-01T04:27:13;1.13;;;1.03;;
6269;SDS011;3168;51.684;6.954;2022-07-01T04:29:39;0.50;;;0.50;;
6269;SDS011;3168;51.684;6.954;2022-07-01T04:32:05;0.50;;;0.50;;
6269;SDS011;3168;51.684;6.954;2022-07-01T04:34:32;0.50;;;0.50;;
6269;SDS011;3168;51.684;6.954;2022-07-01T04:36:58;0.50;;;0.50;;
6269;SDS011;3168;51.684;6.954;2022-07-01T04:39:23;0.50;;;0.50;;
6269;SDS011;3168;51.684;6.954;2022-07-01T04:41:49;0.50;;;0.50;;
6269;SDS011;3168;51.684;6.954;2022-07-01T04:44:21;0.70;;;0.70;;
6269;SDS011;3168;51.684;6.954;2022-07-01T04:46:48;0.50;;;0.50;;
6269;SDS011;3168;51.684;6.954;2022-07-01T04:49:14;0.50;;;0.50;;
6269;SDS011;3168;51.684;6.954;2022-07-01T04:51:39;0.50;;;0.50;;
6269;SDS011;3168;51.684;6.954;2022-07-01T04:54:06;0.50;;;0.50;;
6269;SDS011;3168;51.684;6.954;2022-07-01T04:56:31;0.50;;;0.50;;
6269;SDS011;3168;51.684;6.954;2022-07-01T04:58:57;0.50;;;0.50;;
6269;SDS011;3168;51.684;6.954;2022-07-01T05:01:24;0.50;;;0.50;;
6269;SDS011;3168;51.684;6.954;2022-07-01T05:03:49;0.50;;;0.50;;
6269;SDS011;3168;51.684;6.954;2022-07-01T05:06:15;0.50;;;0.50;;
6269;SDS011;3168;51.684;6.954;2022-07-01T05:08:41;0.50;;;0.50;;
6269;SDS011;3168;51.684;6.954;2022-07-01T05:11:07;16.97;;;11.60;;
6269;SDS011;3168;51.684;6.954;2022-07-01T05:13:33;16.60;;;11.20;;
6269;SDS011;3168;51.684;6.954;2022-07-01T05:15:59;16.57;;;12.27;;
6269;SDS011;3168;51.684;6.954;2022-07-01T05:18:24;14.93;;;10.57;;
6269;SDS011;3168;51.684;6.954;2022-07-01T05:20:56;18.70;;;11.37;;
6269;SDS011;3168;51.684;6.954;2022-07-01T05:23:28;17.30;;;9.93;;
6269;SDS011;3168;51.684;6.954;2022-07-01T05:25:54;12.10;;;9.70;;
6269;SDS011;3168;51.684;6.954;2022-07-01T05:28:20;12.80;;;9.57;;
6269;SDS011;3168;51.684;6.954;2022-07-01T05:30:46;13.37;;;11.47;;
6269;SDS011;3168;51.684;6.954;2022-07-01T05:33:12;12.93;;;10.33;;
6269;SDS011;3168;51.684;6.954;2022-07-01T05:35:38;17.97;;;10.73;;
6269;SDS011;3168;51.684;6.954;2022-07-01T05:38:03;12.27;;;10.50;;
6269;SDS011;3168;51.684;6.954;2022-07-01T05:40:29;15.50;;;10.33;;
6269;SDS011;3168;51.684;6.954;2022-07-01T05:42:55;17.00;;;10.90;;
6269;SDS011;3168;51.684;6.954;2022-07-01T05:45:21;15.70;;;11.73;;
6269;SDS011;3168;51.684;6.954;2022-07-01T05:47:47;11.60;;;10.40;;
6269;SDS011;3168;51.684;6.954;2022-07-01T05:50:13;13.57;;;11.17;;
6269;SDS011;3168;51.684;6.954;2022-07-01T05:52:39;12.10;;;10.87;;
6269;SDS011;3168;51.684;6.954;2022-07-01T05:55:04;15.97;;;11.97;;
6269;SDS011;3168;51.684;6.954;2022-07-01T05:57:30;13.70;;;11.07;;
6269;SDS011;3168;51.684;6.954;2022-07-01T05:59:56;16.30;;;10.80;;
6269;SDS011;3168;51.684;6.954;2022-07-01T06:02:22;12.13;;;10.93;;
6269;SDS011;3168;51.684;6.954;2022-07-01T06:04:48;14.43;;;10.97;;
6269;SDS011;3168;51.684;6.954;2022-07-01T06:07:14;12.23;;;11.03;;
6269;SDS011;3168;51.684;6.954;2022-07-01T06:09:40;15.80;;;9.97;;
6269;SDS011;3168;51.684;6.954;2022-07-01T06:12:06;13.77;;;9.20;;
6269;SDS011;3168;51.684;6.954;2022-07-01T06:14:32;14.27;;;9.40;;
6269;SDS011;3168;51.684;6.954;2022-07-01T06:16:58;16.90;;;9.20;;
6269;SDS011;3168;51.684;6.954;2022-07-01T06:19:24;11.30;;;9.83;;
6269;SDS011;3168;51.684;6.954;2022-07-01T06:21:50;17.43;;;10.40;;
6269;SDS011;3168;51.684;6.954;2022-07-01T06:24:16;10.63;;;9.30;;
6269;SDS011;3168;51.684;6.954;2022-07-01T06:26:42;12.07;;;10.30;;
6269;SDS011;3168;51.684;6.954;2022-07-01T06:29:08;15.47;;;9.87;;
6269;SDS011;3168;51.684;6.954;2022-07-01T06:31:34;19.23;;;10.20;;
6269;SDS011;3168;51.684;6.954;2022-07-01T06:33:59;13.13;;;10.87;;
6269;SDS011;3168;51.684;6.954;2022-07-01T06:36:25;15.97;;;10.57;;
6269;SDS011;3168;51.684;6.954;2022-07-01T06:38:52;14.60;;;11.57;;
6269;SDS011;3168;51.684;6.954;2022-07-01T06:41:18;13.60;;;10.27;;
6269;SDS011;3168;51.684;6.954;2022-07-01T06:43:50;13.60;;;10.87;;
6269;SDS011;3168;51.684;6.954;2022-07-01T06:46:17;17.10;;;12.13;;
6269;SDS011;3168;51.684;6.954;2022-07-01T06:48:42;20.17;;;11.10;;
6269;SDS011;3168;51.684;6.954;2022-07-01T06:51:08;14.60;;;10.57;;
6269;SDS011;3168;51.684;6.954;2022-07-01T06:53:34;16.33;;;12.60;;
6269;SDS011;3168;51.684;6.954;2022-07-01T06:56:00;12.47;;;11.30;;
6269;SDS011;3168;51.684;6.954;2022-07-01T06:58:26;13.47;;;12.10;;
6269;SDS011;3168;51.684;6.954;2022-07-01T07:00:52;17.83;;;11.60;;
6269;SDS011;3168;51.684;6.954;2022-07-01T07:03:18;12.23;;;10.70;;
6269;SDS011;3168;51.684;6.954;2022-07-01T07:05:44;12.70;;;10.13;;
6269;SDS011;3168;51.684;6.954;2022-07-01T07:08:10;13.35;;;10.85;;
6269;SDS011;3168;51.684;6.954;2022-07-01T07:10:36;12.57;;;11.17;;
6269;SDS011;3168;51.684;6.954;2022-07-01T07:13:01;15.20;;;9.63;;
6269;SDS011;3168;51.684;6.954;2022-07-01T07:15:27;8.73;;;7.93;;
6269;SDS011;3168;51.684;6.954;2022-07-01T07:17:53;7.17;;;6.57;;
6269;SDS011;3168;51.684;6.954;2022-07-01T07:20:19;7.90;;;7.33;;
6269;SDS011;3168;51.684;6.954;2022-07-01T07:22:45;12.60;;;7.10;;
6269;SDS011;3168;51.684;6.954;2022-07-01T07:25:11;6.97;;;5.77;;
6269;SDS011;3168;51.684;6.954;2022-07-01T07:27:36;6.30;;;5.80;;
6269;SDS011;3168;51.684;6.954;2022-07-01T07:30:02;6.40;;;5.90;;
6269;SDS011;3168;51.684;6.954;2022-07-01T07:32:29;6.40;;;5.80;;
6269;SDS011;3168;51.684;6.954;2022-07-01T07:34:54;9.47;;;7.90;;
6269;SDS011;3168;51.684;6.954;2022-07-01T07:37:20;6.80;;;5.93;;
6269;SDS011;3168;51.684;6.954;2022-07-01T07:39:46;6.53;;;6.10;;
6269;SDS011;3168;51.684;6.954;2022-07-01T07:42:12;6.10;;;5.70;;
6269;SDS011;3168;51.684;6.954;2022-07-01T07:44:38;8.40;;;7.17;;
6269;SDS011;3168;51.684;6.954;2022-07-01T07:47:04;6.50;;;6.10;;
6269;SDS011;3168;51.684;6.954;2022-07-01T07:49:30;7.10;;;6.43;;
6269;SDS011;3168;51.684;6.954;2022-07-01T07:51:57;6.23;;;5.80;;
6269;SDS011;3168;51.684;6.954;2022-07-01T07:54:23;6.33;;;5.83;;
6269;SDS011;3168;51.684;6.954;2022-07-01T07:56:49;7.27;;;6.60;;
6269;SDS011;3168;51.684;6.954;2022-07-01T07:59:15;17.07;;;7.40;;
6269;SDS011;3168;51.684;6.954;2022-07-01T08:01:41;7.97;;;7.23;;
6269;SDS011;3168;51.684;6.954;2022-07-01T08:04:07;8.80;;;6.93;;
6269;SDS011;3168;51.684;6.954;2022-07-01T08:06:34;8.23;;;7.50;;
6269;SDS011;3168;51.684;6.954;2022-07-01T08:08:59;6.65;;;6.35;;
6269;SDS011;3168;51.684;6.954;2022-07-01T08:11:25;8.10;;;6.63;;
6269;SDS011;3168;51.684;6.954;2022-07-01T08:13:52;6.80;;;6.23;;
6269;SDS011;3168;51.684;6.954;2022-07-01T08:16:18;6.37;;;5.70;;
6269;SDS011;3168;51.684;6.954;2022-07-01T08:18:44;6.37;;;5.77;;
6269;SDS011;3168;51.684;6.954;2022-07-01T08:21:09;5.23;;;4.73;;
6269;SDS011;3168;51.684;6.954;2022-07-01T08:23:35;5.30;;;4.80;;
6269;SDS011;3168;51.684;6.954;2022-07-01T08:26:02;4.70;;;4.30;;
6269;SDS011;3168;51.684;6.954;2022-07-01T08:28:28;5.23;;;4.87;;
6269;SDS011;3168;51.684;6.954;2022-07-01T08:30:54;5.17;;;4.83;;
6269;SDS011;3168;51.684;6.954;2022-07-01T08:33:19;11.77;;;4.20;;
6269;SDS011;3168;51.684;6.954;2022-07-01T08:35:45;5.17;;;4.67;;
6269;SDS011;3168;51.684;6.954;2022-07-01T08:38:12;4.53;;;4.33;;
6269;SDS011;3168;51.684;6.954;2022-07-01T08:40:38;7.50;;;4.53;;
6269;SDS011;3168;51.684;6.954;2022-07-01T08:43:05;6.80;;;6.20;;
6269;SDS011;3168;51.684;6.954;2022-07-01T08:45:32;6.90;;;4.60;;
6269;SDS011;3168;51.684;6.954;2022-07-01T08:47:57;4.97;;;4.50;;
6269;SDS011;3168;51.684;6.954;2022-07-01T08:50:24;8.33;;;4.27;;
6269;SDS011;3168;51.684;6.954;2022-07-01T08:52:50;5.47;;;5.07;;
6269;SDS011;3168;51.684;6.954;2022-07-01T08:55:16;4.13;;;3.77;;
6269;SDS011;3168;51.684;6.954;2022-07-01T08:57:41;4.27;;;3.87;;
6269;SDS011;3168;51.684;6.954;2022-07-01T09:00:07;8.80;;;3.63;;
6269;SDS011;3168;51.684;6.954;2022-07-01T09:05:12;3.60;;;3.50;;
6269;SDS011;3168;51.684;6.954;2022-07-01T09:07:38;5.43;;;4.27;;
6269;SDS011;3168;51.684;6.954;2022-07-01T09:12:41;3.20;;;3.10;;
6269;SDS011;3168;51.684;6.954;2022-07-01T09:15:39;4.37;;;3.43;;
6269;SDS011;3168;51.684;6.954;2022-07-01T09:17:48;3.90;;;3.10;;
6269;SDS011;3168;51.684;6.954;2022-07-01T09:20:29;3.27;;;3.07;;
6269;SDS011;3168;51.684;6.954;2022-07-01T09:23:00;2.43;;;2.33;;
6269;SDS011;3168;51.684;6.954;2022-07-01T09:25:28;2.73;;;2.53;;
6269;SDS011;3168;51.684;6.954;2022-07-01T09:30:28;3.00;;;2.90;;
6269;SDS011;3168;51.684;6.954;2022-07-01T09:35:30;2.17;;;2.07;;
6269;SDS011;3168;51.684;6.954;2022-07-01T09:37:55;2.27;;;2.17;;
6269;SDS011;3168;51.684;6.954;2022-07-01T09:40:21;2.63;;;2.43;;
6269;SDS011;3168;51.684;6.954;2022-07-01T09:42:47;1.93;;;1.83;;
6269;SDS011;3168;51.684;6.954;2022-07-01T09:45:12;8.43;;;4.83;;
6269;SDS011;3168;51.684;6.954;2022-07-01T09:47:39;3.53;;;2.83;;
6269;SDS011;3168;51.684;6.954;2022-07-01T09:50:05;4.97;;;2.57;;
6269;SDS011;3168;51.684;6.954;2022-07-01T09:52:31;2.50;;;2.27;;
6269;SDS011;3168;51.684;6.954;2022-07-01T09:54:57;2.43;;;2.20;;
6269;SDS011;3168;51.684;6.954;2022-07-01T09:57:23;2.57;;;2.37;;
6269;SDS011;3168;51.684;6.954;2022-07-01T09:59:49;3.27;;;3.07;;
6269;SDS011;3168;51.684;6.954;2022-07-01T10:02:14;3.10;;;2.90;;
6269;SDS011;3168;51.684;6.954;2022-07-01T10:04:42;2.80;;;2.60;;
6269;SDS011;3168;51.684;6.954;2022-07-01T10:07:24;5.37;;;2.40;;
6269;SDS011;3168;51.684;6.954;2022-07-01T10:10:16;2.33;;;2.10;;
6269;SDS011;3168;51.684;6.954;2022-07-01T10:12:42;7.33;;;2.23;;
6269;SDS011;3168;51.684;6.954;2022-07-01T10:15:08;2.50;;;2.30;;
6269;SDS011;3168;51.684;6.954;2022-07-01T10:17:36;2.87;;;2.37;;
6269;SDS011;3168;51.684;6.954;2022-07-01T10:20:07;8.93;;;2.97;;
6269;SDS011;3168;51.684;6.954;2022-07-01T10:22:34;1.73;;;1.63;;
6269;SDS011;3168;51.684;6.954;2022-07-01T10:27:36;2.20;;;2.03;;
6269;SDS011;3168;51.684;6.954;2022-07-01T10:30:14;1.43;;;1.33;;
6269;SDS011;3168;51.684;6.954;2022-07-01T10:32:42;1.43;;;1.33;;
6269;SDS011;3168;51.684;6.954;2022-07-01T10:35:07;1.73;;;1.63;;
6269;SDS011;3168;51.684;6.954;2022-07-01T10:37:33;3.23;;;2.50;;
6269;SDS011;3168;51.684;6.954;2022-07-01T10:39:59;4.00;;;1.73;;
6269;SDS011;3168;51.684;6.954;2022-07-01T10:42:27;5.30;;;2.03;;
6269;SDS011;3168;51.684;6.954;2022-07-01T10:45:04;2.33;;;1.73;;
6269;SDS011;3168;51.684;6.954;2022-07-01T10:48:19;3.03;;;1.60;;
6269;SDS011;3168;51.684;6.954;2022-07-01T10:51:41;1.60;;;1.60;;
6269;SDS011;3168;51.684;6.954;2022-07-01T11:03:07;1.77;;;1.30;;
6269;SDS011;3168;51.684;6.954;2022-07-01T11:05:44;2.60;;;1.07;;
6269;SDS011;3168;51.684;6.954;2022-07-01T11:08:22;4.30;;;1.50;;
6269;SDS011;3168;51.684;6.954;2022-07-01T11:11:02;2.60;;;1.20;;
6269;SDS011;3168;51.684;6.954;2022-07-01T11:13:39;1.30;;;1.30;;
6269;SDS011;3168;51.684;6.954;2022-07-01T11:16:17;4.93;;;1.50;;
6269;SDS011;3168;51.684;6.954;2022-07-01T11:18:55;2.90;;;1.63;;
6269;SDS011;3168;51.684;6.954;2022-07-01T11:21:34;3.03;;;1.30;;
6269;SDS011;3168;51.684;6.954;2022-07-01T11:24:12;2.53;;;1.30;;
6269;SDS011;3168;51.684;6.954;2022-07-01T11:26:50;1.60;;;1.50;;
6269;SDS011;3168;51.684;6.954;2022-07-01T11:29:28;1.57;;;1.47;;
6269;SDS011;3168;51.684;6.954;2022-07-01T11:32:06;1.57;;;1.47;;
6269;SDS011;3168;51.684;6.954;2022-07-01T11:34:45;1.67;;;1.40;;
6269;SDS011;3168;51.684;6.954;2022-07-01T11:37:26;1.30;;;1.30;;
6269;SDS011;3168;51.684;6.954;2022-07-01T11:40:08;2.60;;;1.10;;
6269;SDS011;3168;51.684;6.954;2022-07-01T11:42:46;1.60;;;1.50;;
6269;SDS011;3168;51.684;6.954;2022-07-01T11:45:25;2.20;;;1.57;;
6269;SDS011;3168;51.684;6.954;2022-07-01T11:48:02;1.70;;;1.60;;
6269;SDS011;3168;51.684;6.954;2022-07-01T11:50:41;0.80;;;0.80;;
6269;SDS011;3168;51.684;6.954;2022-07-01T11:53:19;1.87;;;1.33;;
6269;SDS011;3168;51.684;6.954;2022-07-01T11:55:57;1.10;;;1.10;;
6269;SDS011;3168;51.684;6.954;2022-07-01T11:58:40;1.40;;;1.30;;
6269;SDS011;3168;51.684;6.954;2022-07-01T12:01:19;1.10;;;1.00;;
6269;SDS011;3168;51.684;6.954;2022-07-01T12:04:00;2.03;;;1.27;;
6269;SDS011;3168;51.684;6.954;2022-07-01T12:06:37;2.73;;;1.53;;
6269;SDS011;3168;51.684;6.954;2022-07-01T12:09:17;1.83;;;1.40;;
6269;SDS011;3168;51.684;6.954;2022-07-01T12:11:54;1.30;;;1.30;;
6269;SDS011;3168;51.684;6.954;2022-07-01T12:14:33;4.23;;;1.57;;
6269;SDS011;3168;51.684;6.954;2022-07-01T12:17:11;4.33;;;1.20;;
6269;SDS011;3168;51.684;6.954;2022-07-01T12:19:50;8.63;;;2.37;;
6269;SDS011;3168;51.684;6.954;2022-07-01T12:22:28;1.10;;;1.00;;
6269;SDS011;3168;51.684;6.954;2022-07-01T12:25:09;1.77;;;1.37;;
6269;SDS011;3168;51.684;6.954;2022-07-01T12:27:48;1.10;;;1.10;;
6269;SDS011;3168;51.684;6.954;2022-07-01T12:30:26;2.13;;;1.93;;
6269;SDS011;3168;51.684;6.954;2022-07-01T12:33:09;0.90;;;0.90;;
6269;SDS011;3168;51.684;6.954;2022-07-01T12:35:47;0.80;;;0.80;;
6269;SDS011;3168;51.684;6.954;2022-07-01T12:38:25;0.80;;;0.80;;
6269;SDS011;3168;51.684;6.954;2022-07-01T12:41:03;4.40;;;1.90;;
6269;SDS011;3168;51.684;6.954;2022-07-01T12:43:41;1.90;;;1.60;;
6269;SDS011;3168;51.684;6.954;2022-07-01T12:49:03;1.70;;;0.87;;
6269;SDS011;3168;51.684;6.954;2022-07-01T12:51:41;0.93;;;0.93;;
6269;SDS011;3168;51.684;6.954;2022-07-01T12:57:05;1.20;;;1.10;;
6269;SDS011;3168;51.684;6.954;2022-07-01T12:59:43;2.10;;;1.67;;
6269;SDS011;3168;51.684;6.954;2022-07-01T13:02:21;3.20;;;0.90;;
6269;SDS011;3168;51.684;6.954;2022-07-01T13:05:00;0.70;;;0.70;;
6269;SDS011;3168;51.684;6.954;2022-07-01T13:07:38;1.00;;;0.90;;
6269;SDS011;3168;51.684;6.954;2022-07-01T13:10:16;7.53;;;1.50;;
6269;SDS011;3168;51.684;6.954;2022-07-01T13:12:54;1.00;;;1.00;;
6269;SDS011;3168;51.684;6.954;2022-07-01T13:15:33;1.43;;;0.80;;
6269;SDS011;3168;51.684;6.954;2022-07-01T13:18:11;2.33;;;1.00;;
6269;SDS011;3168;51.684;6.954;2022-07-01T13:20:49;2.20;;;0.80;;
6269;SDS011;3168;51.684;6.954;2022-07-01T13:23:27;0.90;;;0.70;;
6269;SDS011;3168;51.684;6.954;2022-07-01T13:26:06;1.00;;;0.90;;
6269;SDS011;3168;51.684;6.954;2022-07-01T13:28:44;0.83;;;0.83;;
6269;SDS011;3168;51.684;6.954;2022-07-01T13:31:22;1.10;;;0.80;;
6269;SDS011;3168;51.684;6.954;2022-07-01T13:34:00;1.13;;;1.03;;
6269;SDS011;3168;51.684;6.954;2022-07-01T13:36:39;1.53;;;0.80;;
6269;SDS011;3168;51.684;6.954;2022-07-01T13:39:17;0.70;;;0.70;;
6269;SDS011;3168;51.684;6.954;2022-07-01T13:41:55;1.30;;;1.20;;
6269;SDS011;3168;51.684;6.954;2022-07-01T13:44:33;1.57;;;0.97;;
6269;SDS011;3168;51.684;6.954;2022-07-01T13:47:11;1.13;;;0.90;;
6269;SDS011;3168;51.684;6.954;2022-07-01T13:49:49;1.13;;;1.13;;
6269;SDS011;3168;51.684;6.954;2022-07-01T13:52:28;1.00;;;1.00;;
6269;SDS011;3168;51.684;6.954;2022-07-01T13:55:06;1.00;;;1.00;;
6269;SDS011;3168;51.684;6.954;2022-07-01T13:57:45;1.73;;;1.00;;
6269;SDS011;3168;51.684;6.954;2022-07-01T14:00:23;1.30;;;1.20;;
6269;SDS011;3168;51.684;6.954;2022-07-01T14:03:01;1.30;;;1.10;;
6269;SDS011;3168;51.684;6.954;2022-07-01T14:05:39;3.07;;;1.00;;
6269;SDS011;3168;51.684;6.954;2022-07-01T14:08:18;4.07;;;3.00;;
6269;SDS011;3168;51.684;6.954;2022-07-01T14:10:56;3.50;;;0.90;;
6269;SDS011;3168;51.684;6.954;2022-07-01T14:13:34;1.33;;;1.00;;
6269;SDS011;3168;51.684;6.954;2022-07-01T14:16:12;1.20;;;0.97;;
6269;SDS011;3168;51.684;6.954;2022-07-01T14:18:50;6.60;;;0.80;;
6269;SDS011;3168;51.684;6.954;2022-07-01T14:21:28;1.47;;;0.87;;
6269;SDS011;3168;51.684;6.954;2022-07-01T14:24:07;1.27;;;0.70;;
6269;SDS011;3168;51.684;6.954;2022-07-01T14:26:45;3.23;;;0.90;;
6269;SDS011;3168;51.684;6.954;2022-07-01T14:29:23;1.07;;;0.93;;
6269;SDS011;3168;51.684;6.954;2022-07-01T14:32:02;0.82;;;0.80;;
6269;SDS011;3168;51.684;6.954;2022-07-01T14:34:40;1.57;;;1.27;;
6269;SDS011;3168;51.684;6.954;2022-07-01T14:37:19;3.07;;;0.93;;
6269;SDS011;3168;51.684;6.954;2022-07-01T14:39:57;1.70;;;0.80;;
6269;SDS011;3168;51.684;6.954;2022-07-01T14:42:35;1.87;;;1.10;;
6269;SDS011;3168;51.684;6.954;2022-07-01T14:45:13;1.43;;;0.90;;
6269;SDS011;3168;51.684;6.954;2022-07-01T14:47:52;1.30;;;0.80;;
6269;SDS011;3168;51.684;6.954;2022-07-01T14:50:31;2.23;;;1.10;;
6269;SDS011;3168;51.684;6.954;2022-07-01T14:53:09;1.33;;;1.33;;
6269;SDS011;3168;51.684;6.954;2022-07-01T14:55:47;0.90;;;0.90;;
6269;SDS011;3168;51.684;6.954;2022-07-01T14:58:25;1.10;;;0.83;;
6269;SDS011;3168;51.684;6.954;2022-07-01T15:01:03;0.87;;;0.87;;
6269;SDS011;3168;51.684;6.954;2022-07-01T15:03:42;2.80;;;1.20;;
6269;SDS011;3168;51.684;6.954;2022-07-01T15:06:20;2.43;;;1.00;;
6269;SDS011;3168;51.684;6.954;2022-07-01T15:08:58;2.40;;;1.00;;
6269;SDS011;3168;51.684;6.954;2022-07-01T15:11:36;0.77;;;0.77;;
6269;SDS011;3168;51.684;6.954;2022-07-01T15:14:14;2.10;;;1.53;;
6269;SDS011;3168;51.684;6.954;2022-07-01T15:16:53;3.17;;;1.30;;
6269;SDS011;3168;51.684;6.954;2022-07-01T15:19:31;5.60;;;2.13;;
6269;SDS011;3168;51.684;6.954;2022-07-01T15:22:10;1.93;;;1.00;;
6269;SDS011;3168;51.684;6.954;2022-07-01T15:24:48;1.67;;;0.90;;
6269;SDS011;3168;51.684;6.954;2022-07-01T15:27:26;1.70;;;1.07;;
6269;SDS011;3168;51.684;6.954;2022-07-01T15:30:05;0.80;;;0.80;;
6269;SDS011;3168;51.684;6.954;2022-07-01T15:32:43;1.53;;;1.53;;
6269;SDS011;3168;51.684;6.954;2022-07-01T15:35:22;1.93;;;0.80;;
6269;SDS011;3168;51.684;6.954;2022-07-01T15:38:01;1.13;;;0.90;;
6269;SDS011;3168;51.684;6.954;2022-07-01T15:40:39;1.23;;;0.90;;
6269;SDS011;3168;51.684;6.954;2022-07-01T15:43:17;0.93;;;0.90;;
6269;SDS011;3168;51.684;6.954;2022-07-01T15:45:56;0.80;;;0.80;;
6269;SDS011;3168;51.684;6.954;2022-07-01T15:48:33;0.90;;;0.90;;
6269;SDS011;3168;51.684;6.954;2022-07-01T15:51:12;1.50;;;1.40;;
6269;SDS011;3168;51.684;6.954;2022-07-01T15:53:50;0.70;;;0.70;;
6269;SDS011;3168;51.684;6.954;2022-07-01T15:56:29;0.80;;;0.80;;
6269;SDS011;3168;51.684;6.954;2022-07-01T15:59:07;1.17;;;0.93;;
6269;SDS011;3168;51.684;6.954;2022-07-01T16:01:45;1.17;;;1.17;;